sensor_id;sensor_type;location;lat;lon;timestamp;pressure;altitude;pressure_sealevel;temperature;humidity
21240;BME280;10778;48.962;9.018;2023-09-19T00:01:33;98647.28;;;15.41;100.00
21240;BME280;10778;48.962;9.018;2023-09-19T00:04:01;98655.31;;;15.48;100.00
21240;BME280;10778;48.962;9.018;2023-09-19T00:06:29;98649.09;;;15.41;100.00
21240;BME280;10778;48.962;9.018;2023-09-19T00:08:57;98650.72;;;15.42;100.00
21240;BME280;10778;48.962;9.018;2023-09-19T00:11:26;98663.50;;;15.38;100.00
21240;BME280;10778;48.962;9.018;2023-09-19T00:13:53;98658.78;;;15.33;100.00
21240;BME280;10778;48.962;9.018;2023-09-19T00:16:19;98667.91;;;15.31;100.00
21240;BME280;10778;48.962;9.018;2023-09-19T00:18:46;98667.72;;;15.32;100.00
21240;BME280;10778;48.962;9.018;2023-09-19T00:21:12;98671.81;;;15.35;100.00
21240;BME280;10778;48.962;9.018;2023-09-19T00:23:38;98678.78;;;15.36;100.00
21240;BME280;10778;48.962;9.018;2023-09-19T00:26:06;98682.44;;;15.35;100.00
21240;BME280;10778;48.962;9.018;2023-09-19T00:28:32;98678.78;;;15.36;100.00
21240;BME280;10778;48.962;9.018;2023-09-19T00:30:58;98688.22;;;15.39;100.00
21240;BME280;10778;48.962;9.018;2023-09-19T00:33:28;98692.78;;;15.45;100.00
21240;BME280;10778;48.962;9.018;2023-09-19T00:35:56;98682.28;;;15.52;100.00
21240;BME280;10778;48.962;9.018;2023-09-19T00:38:27;98690.34;;;15.58;100.00
21240;BME280;10778;48.962;9.018;2023-09-19T00:40:54;98692.19;;;15.58;100.00
21240;BME280;10778;48.962;9.018;2023-09-19T00:43:20;98693.63;;;15.60;100.00
21240;BME280;10778;48.962;9.018;2023-09-19T00:45:50;98698.88;;;15.69;100.00
21240;BME280;10778;48.962;9.018;2023-09-19T00:48:17;98691.72;;;15.69;100.00
21240;BME280;10778;48.962;9.018;2023-09-19T00:50:46;98689.28;;;15.68;100.00
21240;BME280;10778;48.962;9.018;2023-09-19T00:53:20;98699.13;;;15.59;100.00
21240;BME280;10778;48.962;9.018;2023-09-19T00:55:46;98687.13;;;15.48;100.00
21240;BME280;10778;48.962;9.018;2023-09-19T00:58:12;98695.25;;;15.46;100.00
21240;BME280;10778;48.962;9.018;2023-09-19T01:00:40;98692.78;;;15.45;100.00
21240;BME280;10778;48.962;9.018;2023-09-19T01:03:07;98690.66;;;15.40;100.00
21240;BME280;10778;48.962;9.018;2023-09-19T01:05:33;98696.28;;;15.45;100.00
21240;BME280;10778;48.962;9.018;2023-09-19T01:07:59;98701.03;;;15.50;100.00
21240;BME280;10778;48.962;9.018;2023-09-19T01:10:25;98699.84;;;15.53;100.00
21240;BME280;10778;48.962;9.018;2023-09-19T01:13:21;98707.78;;;15.53;100.00
21240;BME280;10778;48.962;9.018;2023-09-19T01:15:57;98705.97;;;15.53;100.00
21240;BME280;10778;48.962;9.018;2023-09-19T01:18:48;98710.75;;;15.58;100.00
21240;BME280;10778;48.962;9.018;2023-09-19T01:21:27;98724.06;;;15.49;100.00
21240;BME280;10778;48.962;9.018;2023-09-19T01:29:34;98719.44;;;15.67;100.00
21240;BME280;10778;48.962;9.018;2023-09-19T01:32:06;98726.72;;;15.64;100.00
21240;BME280;10778;48.962;9.018;2023-09-19T01:34:51;98725.09;;;15.63;100.00
21240;BME280;10778;48.962;9.018;2023-09-19T01:37:20;98727.28;;;15.60;100.00
21240;BME280;10778;48.962;9.018;2023-09-19T01:39:57;98732.13;;;15.56;100.00
21240;BME280;10778;48.962;9.018;2023-09-19T01:45:36;98742.34;;;15.44;100.00
21240;BME280;10778;48.962;9.018;2023-09-19T01:51:02;98738.00;;;15.67;100.00
21240;BME280;10778;48.962;9.018;2023-09-19T01:53:49;98749.78;;;15.64;100.00
21240;BME280;10778;48.962;9.018;2023-09-19T01:56:23;98746.50;;;15.62;100.00
21240;BME280;10778;48.962;9.018;2023-09-19T01:58:54;98746.66;;;15.60;100.00
21240;BME280;10778;48.962;9.018;2023-09-19T02:01:23;98757.69;;;15.49;100.00
21240;BME280;10778;48.962;9.018;2023-09-19T02:03:50;98758.00;;;15.54;100.00
21240;BME280;10778;48.962;9.018;2023-09-19T02:06:17;98751.75;;;15.47;100.00
21240;BME280;10778;48.962;9.018;2023-09-19T02:08:44;98753.59;;;15.46;100.00
21240;BME280;10778;48.962;9.018;2023-09-19T02:11:14;98752.69;;;15.54;100.00
21240;BME280;10778;48.962;9.018;2023-09-19T02:13:40;98749.94;;;15.47;100.00
21240;BME280;10778;48.962;9.018;2023-09-19T02:16:07;98749.09;;;15.47;100.00
21240;BME280;10778;48.962;9.018;2023-09-19T02:18:35;98759.06;;;15.45;100.00
21240;BME280;10778;48.962;9.018;2023-09-19T02:21:02;98755.97;;;15.41;100.00
21240;BME280;10778;48.962;9.018;2023-09-19T02:23:28;98750.34;;;15.36;100.00
21240;BME280;10778;48.962;9.018;2023-09-19T02:25:56;98760.41;;;15.41;100.00
21240;BME280;10778;48.962;9.018;2023-09-19T02:28:31;98762.38;;;15.24;100.00
21240;BME280;10778;48.962;9.018;2023-09-19T02:30:58;98763.78;;;15.11;100.00
21240;BME280;10778;48.962;9.018;2023-09-19T02:33:24;98766.19;;;14.98;100.00
21240;BME280;10778;48.962;9.018;2023-09-19T02:35:56;98775.66;;;14.92;100.00
21240;BME280;10778;48.962;9.018;2023-09-19T02:38:25;98772.56;;;14.80;100.00
21240;BME280;10778;48.962;9.018;2023-09-19T02:40:52;98775.72;;;14.75;100.00
21240;BME280;10778;48.962;9.018;2023-09-19T02:43:18;98787.31;;;14.74;100.00
21240;BME280;10778;48.962;9.018;2023-09-19T02:45:48;98779.06;;;14.61;100.00
21240;BME280;10778;48.962;9.018;2023-09-19T02:48:19;98787.84;;;14.61;100.00
21240;BME280;10778;48.962;9.018;2023-09-19T02:50:49;98786.22;;;14.60;100.00
21240;BME280;10778;48.962;9.018;2023-09-19T02:53:15;98784.03;;;14.64;100.00
21240;BME280;10778;48.962;9.018;2023-09-19T02:55:41;98779.22;;;14.68;100.00
21240;BME280;10778;48.962;9.018;2023-09-19T02:58:08;98784.69;;;14.66;100.00
21240;BME280;10778;48.962;9.018;2023-09-19T03:00:37;98795.94;;;14.68;100.00
21240;BME280;10778;48.962;9.018;2023-09-19T03:03:03;98790.31;;;14.71;100.00
21240;BME280;10778;48.962;9.018;2023-09-19T03:05:30;98792.63;;;14.74;100.00
21240;BME280;10778;48.962;9.018;2023-09-19T03:07:57;98794.41;;;14.82;100.00
21240;BME280;10778;48.962;9.018;2023-09-19T03:10:26;98794.38;;;14.90;100.00
21240;BME280;10778;48.962;9.018;2023-09-19T03:12:54;98800.25;;;15.01;100.00
21240;BME280;10778;48.962;9.018;2023-09-19T03:15:20;98806.22;;;15.03;100.00
21240;BME280;10778;48.962;9.018;2023-09-19T03:17:49;98804.41;;;15.03;100.00
21240;BME280;10778;48.962;9.018;2023-09-19T03:20:19;98799.09;;;15.03;100.00
21240;BME280;10778;48.962;9.018;2023-09-19T03:22:47;98803.75;;;15.01;100.00
21240;BME280;10778;48.962;9.018;2023-09-19T03:25:15;98801.34;;;15.15;100.00
21240;BME280;10778;48.962;9.018;2023-09-19T03:27:45;98805.47;;;15.17;100.00
21240;BME280;10778;48.962;9.018;2023-09-19T03:30:12;98798.94;;;15.28;100.00
21240;BME280;10778;48.962;9.018;2023-09-19T03:32:47;98806.09;;;15.51;100.00
21240;BME280;10778;48.962;9.018;2023-09-19T03:35:16;98810.31;;;15.60;100.00
21240;BME280;10778;48.962;9.018;2023-09-19T03:37:43;98800.56;;;15.76;100.00
21240;BME280;10778;48.962;9.018;2023-09-19T03:40:10;98806.00;;;15.83;100.00
21240;BME280;10778;48.962;9.018;2023-09-19T03:42:40;98802.97;;;15.86;100.00
21240;BME280;10778;48.962;9.018;2023-09-19T03:45:09;98805.72;;;15.77;100.00
21240;BME280;10778;48.962;9.018;2023-09-19T03:47:40;98806.78;;;15.91;100.00
21240;BME280;10778;48.962;9.018;2023-09-19T03:50:08;98800.31;;;16.09;100.00
21240;BME280;10778;48.962;9.018;2023-09-19T03:52:36;98812.03;;;16.15;100.00
21240;BME280;10778;48.962;9.018;2023-09-19T03:55:03;98825.91;;;16.02;100.00
21240;BME280;10778;48.962;9.018;2023-09-19T03:57:30;98832.28;;;15.92;100.00
21240;BME280;10778;48.962;9.018;2023-09-19T03:59:56;98824.22;;;15.62;100.00
21240;BME280;10778;48.962;9.018;2023-09-19T04:02:23;98810.63;;;15.42;100.00
21240;BME280;10778;48.962;9.018;2023-09-19T04:04:53;98815.03;;;15.27;100.00
21240;BME280;10778;48.962;9.018;2023-09-19T04:07:19;98812.50;;;15.33;100.00
21240;BME280;10778;48.962;9.018;2023-09-19T04:09:48;98816.16;;;15.32;100.00
21240;BME280;10778;48.962;9.018;2023-09-19T04:12:15;98813.38;;;15.26;100.00
21240;BME280;10778;48.962;9.018;2023-09-19T04:14:42;98815.03;;;15.27;100.00
21240;BME280;10778;48.962;9.018;2023-09-19T04:17:08;98817.91;;;15.17;100.00
21240;BME280;10778;48.962;9.018;2023-09-19T04:19:36;98823.22;;;15.17;100.00
21240;BME280;10778;48.962;9.018;2023-09-19T04:22:03;98822.72;;;15.13;100.00
21240;BME280;10778;48.962;9.018;2023-09-19T04:24:30;98827.03;;;15.14;100.00
21240;BME280;10778;48.962;9.018;2023-09-19T04:26:56;98826.66;;;15.17;100.00
21240;BME280;10778;48.962;9.018;2023-09-19T04:29:23;98824.53;;;15.13;100.00
21240;BME280;10778;48.962;9.018;2023-09-19T04:31:48;98831.16;;;15.17;100.00
21240;BME280;10778;48.962;9.018;2023-09-19T04:34:14;98837.09;;;15.19;100.00
21240;BME280;10778;48.962;9.018;2023-09-19T04:36:41;98833.31;;;15.13;100.00
21240;BME280;10778;48.962;9.018;2023-09-19T04:39:07;98842.75;;;15.16;100.00
21240;BME280;10778;48.962;9.018;2023-09-19T04:41:34;98847.22;;;15.15;100.00
21240;BME280;10778;48.962;9.018;2023-09-19T04:44:00;98851.81;;;15.21;100.00
21240;BME280;10778;48.962;9.018;2023-09-19T04:46:26;98845.22;;;15.17;100.00
21240;BME280;10778;48.962;9.018;2023-09-19T04:48:52;98845.88;;;15.19;100.00
21240;BME280;10778;48.962;9.018;2023-09-19T04:51:18;98851.34;;;15.18;100.00
21240;BME280;10778;48.962;9.018;2023-09-19T04:53:46;98844.06;;;15.20;100.00
21240;BME280;10778;48.962;9.018;2023-09-19T04:56:13;98858.25;;;15.27;100.00
21240;BME280;10778;48.962;9.018;2023-09-19T04:58:39;98861.91;;;15.26;100.00
21240;BME280;10778;48.962;9.018;2023-09-19T05:01:05;98868.69;;;15.29;100.00
21240;BME280;10778;48.962;9.018;2023-09-19T05:03:31;98861.75;;;15.28;100.00
21240;BME280;10778;48.962;9.018;2023-09-19T05:05:57;98872.47;;;15.34;100.00
21240;BME280;10778;48.962;9.018;2023-09-19T05:08:23;98881.44;;;15.33;100.00
21240;BME280;10778;48.962;9.018;2023-09-19T05:10:49;98874.78;;;15.38;100.00
21240;BME280;10778;48.962;9.018;2023-09-19T05:13:16;98873.75;;;15.39;100.00
21240;BME280;10778;48.962;9.018;2023-09-19T05:15:42;98882.72;;;15.38;100.00
21240;BME280;10778;48.962;9.018;2023-09-19T05:18:08;98888.16;;;15.44;100.00
21240;BME280;10778;48.962;9.018;2023-09-19T05:20:34;98887.16;;;15.45;100.00
21240;BME280;10778;48.962;9.018;2023-09-19T05:23:03;98892.91;;;15.49;100.00
21240;BME280;10778;48.962;9.018;2023-09-19T05:25:31;98893.81;;;15.41;100.00
21240;BME280;10778;48.962;9.018;2023-09-19T05:27:58;98899.41;;;15.46;100.00
21240;BME280;10778;48.962;9.018;2023-09-19T05:30:25;98902.06;;;15.46;100.00
21240;BME280;10778;48.962;9.018;2023-09-19T05:32:53;98903.69;;;15.47;100.00
21240;BME280;10778;48.962;9.018;2023-09-19T05:35:20;98909.81;;;15.48;100.00
21240;BME280;10778;48.962;9.018;2023-09-19T05:37:48;98903.34;;;15.50;100.00
21240;BME280;10778;48.962;9.018;2023-09-19T05:40:17;98906.84;;;15.51;100.00
21240;BME280;10778;48.962;9.018;2023-09-19T05:42:43;98910.31;;;15.52;100.00
21240;BME280;10778;48.962;9.018;2023-09-19T05:45:10;98912.59;;;15.55;100.00
21240;BME280;10778;48.962;9.018;2023-09-19T05:47:40;98916.09;;;15.55;100.00
21240;BME280;10778;48.962;9.018;2023-09-19T05:50:09;98917.75;;;15.56;100.00
21240;BME280;10778;48.962;9.018;2023-09-19T05:52:36;98917.75;;;15.56;100.00
21240;BME280;10778;48.962;9.018;2023-09-19T05:55:06;98923.97;;;15.95;100.00
21240;BME280;10778;48.962;9.018;2023-09-19T05:57:37;98928.25;;;16.58;100.00
21240;BME280;10778;48.962;9.018;2023-09-19T06:00:08;98939.69;;;16.20;100.00
21240;BME280;10778;48.962;9.018;2023-09-19T06:02:37;98940.78;;;16.11;100.00
21240;BME280;10778;48.962;9.018;2023-09-19T06:05:05;98939.78;;;15.80;100.00
21240;BME280;10778;48.962;9.018;2023-09-19T06:07:32;98947.59;;;15.82;100.00
21240;BME280;10778;48.962;9.018;2023-09-19T06:10:05;98946.09;;;15.79;100.00
21240;BME280;10778;48.962;9.018;2023-09-19T06:12:33;98954.25;;;15.77;100.00
21240;BME280;10778;48.962;9.018;2023-09-19T06:15:00;98951.88;;;15.83;100.00
21240;BME280;10778;48.962;9.018;2023-09-19T06:17:26;98954.06;;;15.79;100.00
21240;BME280;10778;48.962;9.018;2023-09-19T06:19:53;98953.63;;;15.99;100.00
21240;BME280;10778;48.962;9.018;2023-09-19T06:22:19;98951.03;;;15.90;100.00
21240;BME280;10778;48.962;9.018;2023-09-19T06:24:45;98951.03;;;16.14;100.00
21240;BME280;10778;48.962;9.018;2023-09-19T06:27:12;98957.75;;;16.01;100.00
21240;BME280;10778;48.962;9.018;2023-09-19T06:29:39;98950.63;;;16.02;100.00
21240;BME280;10778;48.962;9.018;2023-09-19T06:32:08;98957.63;;;16.18;100.00
21240;BME280;10778;48.962;9.018;2023-09-19T06:34:36;98949.06;;;16.84;97.77
21240;BME280;10778;48.962;9.018;2023-09-19T06:37:04;98957.22;;;16.98;95.43
21240;BME280;10778;48.962;9.018;2023-09-19T06:39:32;98950.56;;;17.02;94.56
21240;BME280;10778;48.962;9.018;2023-09-19T06:41:58;98953.75;;;17.27;92.68
21240;BME280;10778;48.962;9.018;2023-09-19T06:44:26;98951.72;;;17.81;91.76
21240;BME280;10778;48.962;9.018;2023-09-19T06:46:52;98955.78;;;18.20;88.23
21240;BME280;10778;48.962;9.018;2023-09-19T06:49:18;98954.19;;;18.26;87.98
21240;BME280;10778;48.962;9.018;2023-09-19T06:51:44;98953.22;;;18.91;87.89
21240;BME280;10778;48.962;9.018;2023-09-19T06:54:10;98946.78;;;19.07;83.61
21240;BME280;10778;48.962;9.018;2023-09-19T06:56:36;98969.09;;;18.20;85.20
21240;BME280;10778;48.962;9.018;2023-09-19T06:59:02;98970.06;;;18.34;86.09
21240;BME280;10778;48.962;9.018;2023-09-19T07:01:29;98980.09;;;17.74;86.15
21240;BME280;10778;48.962;9.018;2023-09-19T07:03:55;98979.50;;;17.78;86.37
21240;BME280;10778;48.962;9.018;2023-09-19T07:06:21;98995.00;;;17.38;86.33
21240;BME280;10778;48.962;9.018;2023-09-19T07:08:47;98993.19;;;17.24;87.22
21240;BME280;10778;48.962;9.018;2023-09-19T07:11:14;99004.09;;;17.14;86.06
21240;BME280;10778;48.962;9.018;2023-09-19T07:13:41;98995.94;;;16.77;88.10
21240;BME280;10778;48.962;9.018;2023-09-19T07:16:07;99008.34;;;16.85;89.06
21240;BME280;10778;48.962;9.018;2023-09-19T07:18:36;99000.34;;;17.23;86.81
21240;BME280;10778;48.962;9.018;2023-09-19T07:21:02;99003.47;;;17.78;82.90
21240;BME280;10778;48.962;9.018;2023-09-19T07:23:31;99011.66;;;17.99;82.63
21240;BME280;10778;48.962;9.018;2023-09-19T07:26:01;99013.31;;;18.00;82.64
21240;BME280;10778;48.962;9.018;2023-09-19T07:28:27;99009.25;;;17.82;83.38
21240;BME280;10778;48.962;9.018;2023-09-19T07:30:54;99022.19;;;18.22;81.86
21240;BME280;10778;48.962;9.018;2023-09-19T07:33:20;99017.34;;;18.11;80.40
21240;BME280;10778;48.962;9.018;2023-09-19T07:35:47;99013.69;;;18.33;80.80
21240;BME280;10778;48.962;9.018;2023-09-19T07:38:13;99031.94;;;18.00;81.29
21240;BME280;10778;48.962;9.018;2023-09-19T07:40:39;99026.34;;;18.31;80.76
21240;BME280;10778;48.962;9.018;2023-09-19T07:43:05;99023.06;;;18.29;81.38
21240;BME280;10778;48.962;9.018;2023-09-19T07:45:32;99019.38;;;18.52;80.36
21240;BME280;10778;48.962;9.018;2023-09-19T07:47:58;99030.94;;;18.38;80.13
21240;BME280;10778;48.962;9.018;2023-09-19T07:50:27;99031.13;;;18.14;80.65
21240;BME280;10778;48.962;9.018;2023-09-19T07:52:54;99030.44;;;18.49;81.53
21240;BME280;10778;48.962;9.018;2023-09-19T07:55:22;99030.72;;;19.11;78.58
21240;BME280;10778;48.962;9.018;2023-09-19T07:57:52;99028.94;;;19.25;76.31
21240;BME280;10778;48.962;9.018;2023-09-19T08:00:18;99026.09;;;19.27;78.87
21240;BME280;10778;48.962;9.018;2023-09-19T08:02:44;99034.44;;;20.01;77.06
21240;BME280;10778;48.962;9.018;2023-09-19T08:05:11;99034.84;;;20.11;74.40
21240;BME280;10778;48.962;9.018;2023-09-19T08:07:42;99032.44;;;21.04;70.96
21240;BME280;10778;48.962;9.018;2023-09-19T08:10:09;99030.41;;;20.79;67.11
21240;BME280;10778;48.962;9.018;2023-09-19T08:12:42;99041.44;;;21.43;69.86
21240;BME280;10778;48.962;9.018;2023-09-19T08:15:17;99031.59;;;21.24;67.17
21240;BME280;10778;48.962;9.018;2023-09-19T08:17:43;99039.06;;;20.88;68.74
21240;BME280;10778;48.962;9.018;2023-09-19T08:20:09;99035.47;;;21.41;70.39
21240;BME280;10778;48.962;9.018;2023-09-19T08:22:44;99036.16;;;20.69;69.11
21240;BME280;10778;48.962;9.018;2023-09-19T08:25:14;99040.97;;;21.53;68.27
21240;BME280;10778;48.962;9.018;2023-09-19T08:27:44;99039.13;;;21.47;68.33
21240;BME280;10778;48.962;9.018;2023-09-19T08:30:17;99043.19;;;20.84;67.54
21240;BME280;10778;48.962;9.018;2023-09-19T08:32:43;99038.59;;;20.71;68.66
21240;BME280;10778;48.962;9.018;2023-09-19T08:35:10;99041.84;;;20.12;69.16
21240;BME280;10778;48.962;9.018;2023-09-19T08:37:36;99036.22;;;19.87;68.31
21240;BME280;10778;48.962;9.018;2023-09-19T08:40:03;99041.53;;;19.80;69.32
21240;BME280;10778;48.962;9.018;2023-09-19T08:42:29;99051.50;;;19.58;72.64
21240;BME280;10778;48.962;9.018;2023-09-19T08:44:55;99052.00;;;19.04;73.69
21240;BME280;10778;48.962;9.018;2023-09-19T08:47:34;99042.84;;;19.14;73.99
21240;BME280;10778;48.962;9.018;2023-09-19T08:50:19;99054.00;;;18.74;74.74
21240;BME280;10778;48.962;9.018;2023-09-19T08:52:47;99056.28;;;18.77;76.77
21240;BME280;10778;48.962;9.018;2023-09-19T08:55:15;99063.09;;;18.58;76.66
21240;BME280;10778;48.962;9.018;2023-09-19T08:57:49;99057.69;;;18.51;76.48
21240;BME280;10778;48.962;9.018;2023-09-19T09:00:16;99065.25;;;18.26;77.07
21240;BME280;10778;48.962;9.018;2023-09-19T09:02:46;99067.88;;;17.89;78.46
21240;BME280;10778;48.962;9.018;2023-09-19T09:05:13;99061.44;;;17.98;79.36
21240;BME280;10778;48.962;9.018;2023-09-19T09:07:42;99066.41;;;17.86;78.93
21240;BME280;10778;48.962;9.018;2023-09-19T09:10:09;99072.84;;;17.77;78.92
21240;BME280;10778;48.962;9.018;2023-09-19T09:12:35;99068.50;;;17.91;78.86
21240;BME280;10778;48.962;9.018;2023-09-19T09:15:03;99069.25;;;17.85;80.36
21240;BME280;10778;48.962;9.018;2023-09-19T09:17:30;99073.06;;;17.97;82.13
21240;BME280;10778;48.962;9.018;2023-09-19T09:19:56;99075.13;;;17.80;81.96
21240;BME280;10778;48.962;9.018;2023-09-19T09:22:22;99074.88;;;17.75;81.45
21240;BME280;10778;48.962;9.018;2023-09-19T09:24:59;99083.41;;;17.55;81.79
21240;BME280;10778;48.962;9.018;2023-09-19T09:27:27;99086.44;;;17.52;80.77
21240;BME280;10778;48.962;9.018;2023-09-19T09:29:53;99085.88;;;17.57;81.06
21240;BME280;10778;48.962;9.018;2023-09-19T09:32:28;99080.09;;;17.68;80.29
21240;BME280;10778;48.962;9.018;2023-09-19T09:34:56;99087.34;;;17.89;78.73
21240;BME280;10778;48.962;9.018;2023-09-19T09:37:23;99081.06;;;18.12;78.25
21240;BME280;10778;48.962;9.018;2023-09-19T09:42:35;99074.88;;;18.70;75.34
21240;BME280;10778;48.962;9.018;2023-09-19T09:45:21;99069.03;;;18.38;76.42
21240;BME280;10778;48.962;9.018;2023-09-19T09:48:00;99073.31;;;18.32;75.41
21240;BME280;10778;48.962;9.018;2023-09-19T09:50:31;99072.53;;;18.39;76.69
21240;BME280;10778;48.962;9.018;2023-09-19T09:53:28;99056.84;;;19.23;73.71
21240;BME280;10778;48.962;9.018;2023-09-19T09:56:05;99048.00;;;19.64;72.20
21240;BME280;10778;48.962;9.018;2023-09-19T09:58:36;99049.16;;;19.90;71.44
21240;BME280;10778;48.962;9.018;2023-09-19T10:01:04;99047.81;;;20.14;70.69
21240;BME280;10778;48.962;9.018;2023-09-19T10:03:38;99046.41;;;20.32;69.21
21240;BME280;10778;48.962;9.018;2023-09-19T10:06:14;99056.22;;;20.18;69.57
21240;BME280;10778;48.962;9.018;2023-09-19T10:09:06;99062.44;;;19.76;69.92
21240;BME280;10778;48.962;9.018;2023-09-19T10:11:59;99057.97;;;19.42;71.27
21240;BME280;10778;48.962;9.018;2023-09-19T10:14:30;99058.03;;;19.97;69.34
21240;BME280;10778;48.962;9.018;2023-09-19T10:16:59;99048.25;;;20.31;69.66
21240;BME280;10778;48.962;9.018;2023-09-19T10:19:30;99049.09;;;20.45;67.33
21240;BME280;10778;48.962;9.018;2023-09-19T10:22:01;99045.63;;;20.92;67.17
21240;BME280;10778;48.962;9.018;2023-09-19T10:24:28;99045.81;;;21.04;65.44
21240;BME280;10778;48.962;9.018;2023-09-19T10:26:55;99036.78;;;20.78;65.29
21240;BME280;10778;48.962;9.018;2023-09-19T10:29:23;99052.72;;;20.11;67.58
21240;BME280;10778;48.962;9.018;2023-09-19T10:31:52;99055.91;;;19.79;69.45
21240;BME280;10778;48.962;9.018;2023-09-19T10:34:20;99052.34;;;19.30;71.51
21240;BME280;10778;48.962;9.018;2023-09-19T10:36:46;99057.09;;;18.99;72.41
21240;BME280;10778;48.962;9.018;2023-09-19T10:39:15;99044.31;;;19.23;65.37
21240;BME280;10778;48.962;9.018;2023-09-19T10:41:53;99049.16;;;19.90;63.97
21240;BME280;10778;48.962;9.018;2023-09-19T10:44:24;99058.31;;;19.32;62.58
21240;BME280;10778;48.962;9.018;2023-09-19T10:46:52;99045.16;;;20.14;63.01
21240;BME280;10778;48.962;9.018;2023-09-19T10:49:19;99046.41;;;20.32;63.38
21240;BME280;10778;48.962;9.018;2023-09-19T10:51:46;99046.84;;;20.96;63.64
21240;BME280;10778;48.962;9.018;2023-09-19T10:54:15;99043.13;;;21.17;61.12
21240;BME280;10778;48.962;9.018;2023-09-19T10:56:46;99053.03;;;21.17;63.39
21240;BME280;10778;48.962;9.018;2023-09-19T10:59:16;99048.50;;;20.70;64.27
21240;BME280;10778;48.962;9.018;2023-09-19T11:01:46;99045.84;;;20.97;65.04
21240;BME280;10778;48.962;9.018;2023-09-19T11:04:36;99047.84;;;21.29;64.25
21240;BME280;10778;48.962;9.018;2023-09-19T11:07:09;99055.94;;;20.82;65.04
21240;BME280;10778;48.962;9.018;2023-09-19T11:09:50;99045.00;;;20.63;63.40
21240;BME280;10778;48.962;9.018;2023-09-19T11:14:58;99045.59;;;20.45;67.08
21240;BME280;10778;48.962;9.018;2023-09-19T11:17:32;99038.78;;;20.36;65.55
21240;BME280;10778;48.962;9.018;2023-09-19T11:30:32;99012.31;;;20.88;58.49
21240;BME280;10778;48.962;9.018;2023-09-19T11:36:05;99016.28;;;21.51;60.65
21240;BME280;10778;48.962;9.018;2023-09-19T11:46:26;99002.00;;;20.65;63.62
21240;BME280;10778;48.962;9.018;2023-09-19T11:48:54;99003.25;;;20.96;62.92
21240;BME280;10778;48.962;9.018;2023-09-19T11:51:23;98999.31;;;21.12;61.83
21240;BME280;10778;48.962;9.018;2023-09-19T11:53:57;99000.28;;;21.31;61.59
21240;BME280;10778;48.962;9.018;2023-09-19T11:56:26;99003.63;;;21.13;60.29
21240;BME280;10778;48.962;9.018;2023-09-19T11:58:57;98990.16;;;21.46;60.00
21240;BME280;10778;48.962;9.018;2023-09-19T12:01:33;98978.97;;;21.56;57.72
21240;BME280;10778;48.962;9.018;2023-09-19T12:04:02;98985.78;;;21.66;57.90
21240;BME280;10778;48.962;9.018;2023-09-19T12:06:30;98980.75;;;21.76;56.09
21240;BME280;10778;48.962;9.018;2023-09-19T12:08:58;98979.25;;;21.87;56.87
21240;BME280;10778;48.962;9.018;2023-09-19T12:11:29;98987.66;;;21.52;55.72
21240;BME280;10778;48.962;9.018;2023-09-19T12:13:59;98983.19;;;21.39;55.58
21240;BME280;10778;48.962;9.018;2023-09-19T12:16:27;98976.94;;;21.52;56.49
21240;BME280;10778;48.962;9.018;2023-09-19T12:18:56;98983.34;;;21.96;56.01
21240;BME280;10778;48.962;9.018;2023-09-19T12:26:24;98975.53;;;21.88;53.62
21240;BME280;10778;48.962;9.018;2023-09-19T12:28:50;98959.41;;;21.56;54.15
21240;BME280;10778;48.962;9.018;2023-09-19T12:31:18;98971.97;;;21.03;55.43
21240;BME280;10778;48.962;9.018;2023-09-19T12:33:45;98966.50;;;21.37;55.12
21240;BME280;10778;48.962;9.018;2023-09-19T12:36:21;98966.38;;;21.18;55.39
21240;BME280;10778;48.962;9.018;2023-09-19T12:38:58;98966.06;;;21.46;55.88
21240;BME280;10778;48.962;9.018;2023-09-19T12:41:32;98966.81;;;21.67;56.28
21240;BME280;10778;48.962;9.018;2023-09-19T12:43:58;98967.66;;;21.54;56.95
21240;BME280;10778;48.962;9.018;2023-09-19T12:46:26;98959.81;;;21.59;57.24
21240;BME280;10778;48.962;9.018;2023-09-19T12:49:14;98965.28;;;21.85;57.13
21240;BME280;10778;48.962;9.018;2023-09-19T12:51:43;98950.34;;;21.96;55.70
21240;BME280;10778;48.962;9.018;2023-09-19T12:54:09;98951.00;;;21.91;56.42
21240;BME280;10778;48.962;9.018;2023-09-19T12:56:40;98947.91;;;22.26;55.05
21240;BME280;10778;48.962;9.018;2023-09-19T12:59:12;98956.41;;;22.67;54.23
21240;BME280;10778;48.962;9.018;2023-09-19T13:01:40;98949.72;;;22.58;54.80
21240;BME280;10778;48.962;9.018;2023-09-19T13:06:38;98942.53;;;22.96;53.56
21240;BME280;10778;48.962;9.018;2023-09-19T13:09:10;98948.47;;;23.16;53.96
21240;BME280;10778;48.962;9.018;2023-09-19T13:11:37;98946.78;;;23.22;54.11
21240;BME280;10778;48.962;9.018;2023-09-19T13:17:04;98949.66;;;23.21;53.14
21240;BME280;10778;48.962;9.018;2023-09-19T13:19:42;98934.06;;;23.48;52.10
21240;BME280;10778;48.962;9.018;2023-09-19T13:22:40;98942.00;;;23.73;53.26
21240;BME280;10778;48.962;9.018;2023-09-19T13:25:13;98935.00;;;23.42;52.04
21240;BME280;10778;48.962;9.018;2023-09-19T13:27:42;98923.19;;;23.43;50.93
21240;BME280;10778;48.962;9.018;2023-09-19T13:30:08;98920.47;;;24.04;50.45
21240;BME280;10778;48.962;9.018;2023-09-19T13:32:35;98920.22;;;23.94;49.76
21240;BME280;10778;48.962;9.018;2023-09-19T13:35:01;98911.06;;;23.71;50.58
21240;BME280;10778;48.962;9.018;2023-09-19T13:37:27;98917.44;;;24.00;50.63
21240;BME280;10778;48.962;9.018;2023-09-19T13:39:53;98919.38;;;23.51;49.04
21240;BME280;10778;48.962;9.018;2023-09-19T13:42:19;98922.69;;;23.15;49.22
21240;BME280;10778;48.962;9.018;2023-09-19T13:44:47;98916.31;;;23.47;49.81
21240;BME280;10778;48.962;9.018;2023-09-19T13:47:13;98917.41;;;23.89;49.78
21240;BME280;10778;48.962;9.018;2023-09-19T13:49:40;98906.69;;;24.00;49.36
21240;BME280;10778;48.962;9.018;2023-09-19T13:52:08;98897.56;;;24.01;50.21
21240;BME280;10778;48.962;9.018;2023-09-19T13:54:34;98898.56;;;24.19;48.80